createdAt,value
2023-02-27T00:02:31.610Z,101311.38
2023-02-27T00:05:58.777Z,101317.88
2023-02-27T00:09:27.531Z,101323.35
2023-02-27T00:12:54.680Z,101328.48
2023-02-27T00:16:22.234Z,101329.48
2023-02-27T00:19:49.608Z,101331.50
2023-02-27T00:23:17.116Z,101332.86
2023-02-27T00:26:44.239Z,101330.27
2023-02-27T00:30:16.383Z,101340.11
2023-02-27T00:33:43.507Z,101346.92
2023-02-27T00:37:11.138Z,101355.26
2023-02-27T00:40:38.741Z,101354.88
2023-02-27T00:44:06.117Z,101353.14
2023-02-27T00:47:33.405Z,101355.00
2023-02-27T00:51:01.110Z,101355.83
2023-02-27T00:54:31.788Z,101348.81
2023-02-27T00:57:59.285Z,101347.27
2023-02-27T01:01:27.194Z,101348.63
2023-02-27T01:04:57.071Z,101339.59
2023-02-27T01:08:24.557Z,101335.52
2023-02-27T01:11:51.876Z,101334.39
2023-02-27T01:15:19.234Z,101336.51
2023-02-27T01:18:46.859Z,101332.80
2023-02-27T01:22:16.681Z,101336.61
2023-02-27T01:25:44.242Z,101340.94
2023-02-27T01:29:31.562Z,101340.15
2023-02-27T01:33:00.137Z,101335.39
2023-02-27T01:36:29.207Z,101346.17
2023-02-27T01:39:56.803Z,101349.23
2023-02-27T01:44:31.047Z,101351.77
2023-02-27T01:48:04.198Z,101357.69
2023-02-27T01:51:39.356Z,101357.79
2023-02-27T01:55:08.721Z,101365.09
2023-02-27T01:58:36.004Z,101364.34
2023-02-27T02:02:06.547Z,101369.09
2023-02-27T02:05:34.819Z,101363.93
2023-02-27T02:09:03.354Z,101373.78
2023-02-27T02:12:34.867Z,101378.52
2023-02-27T02:16:16.096Z,101379.69
2023-02-27T02:20:28.787Z,101382.24
2023-02-27T02:24:20.048Z,101382.75
2023-02-27T02:28:01.798Z,101384.30
2023-02-27T02:32:00.635Z,101389.93
2023-02-27T02:36:12.477Z,101390.80
2023-02-27T02:40:17.810Z,101386.43
2023-02-27T02:43:55.954Z,101390.58
2023-02-27T02:47:32.640Z,101390.98
2023-02-27T02:51:06.149Z,101396.34
2023-02-27T02:54:41.167Z,101397.58
2023-02-27T02:58:16.549Z,101403.60
2023-02-27T03:01:49.784Z,101407.06
2023-02-27T03:05:24.212Z,101408.94
2023-02-27T03:08:58.911Z,101420.55
2023-02-27T03:12:29.897Z,101428.38
2023-02-27T03:16:02.570Z,101429.02
2023-02-27T03:19:34.171Z,101427.80
2023-02-27T03:23:06.170Z,101430.82
2023-02-27T03:26:37.723Z,101433.02
2023-02-27T03:30:10.698Z,101434.38
2023-02-27T03:33:40.193Z,101430.23
2023-02-27T03:37:14.348Z,101433.81
2023-02-27T03:40:47.720Z,101433.96
2023-02-27T03:44:25.404Z,101441.27
2023-02-27T03:47:52.918Z,101445.16
2023-02-27T03:51:22.237Z,101445.65
2023-02-27T03:54:54.604Z,101444.09
2023-02-27T03:58:21.127Z,101446.80
2023-02-27T04:01:48.535Z,101453.98
2023-02-27T04:05:15.150Z,101460.14
2023-02-27T04:09:01.682Z,101466.33
2023-02-27T04:12:46.055Z,101472.55
2023-02-27T04:16:46.195Z,101472.45
2023-02-27T04:20:24.349Z,101474.90
2023-02-27T04:23:58.966Z,101475.95
2023-02-27T04:27:33.597Z,101477.49
2023-02-27T04:31:13.430Z,101481.09
2023-02-27T04:34:44.965Z,101486.70
2023-02-27T04:38:21.117Z,101489.38
2023-02-27T04:41:51.900Z,101488.84
2023-02-27T04:45:23.467Z,101486.60
2023-02-27T04:48:55.611Z,101490.33
2023-02-27T04:52:26.661Z,101491.64
2023-02-27T04:55:57.830Z,101497.40
2023-02-27T04:59:30.304Z,101500.60
2023-02-27T05:03:01.808Z,101505.02
2023-02-27T05:06:32.950Z,101510.48
2023-02-27T05:10:04.533Z,101509.98
2023-02-27T05:13:36.017Z,101515.59
2023-02-27T05:17:09.698Z,101518.33
2023-02-27T05:20:44.319Z,101522.77
2023-02-27T05:24:19.965Z,101523.80
2023-02-27T05:27:50.683Z,101528.14
2023-02-27T05:31:25.528Z,101528.17
2023-02-27T05:34:58.706Z,101533.54
2023-02-27T05:38:31.771Z,101540.31
2023-02-27T05:42:03.401Z,101546.05
2023-02-27T05:45:34.965Z,101550.92
2023-02-27T05:49:07.514Z,101555.80
2023-02-27T05:52:36.178Z,101560.27
2023-02-27T05:56:06.640Z,101564.39
2023-02-27T05:59:39.222Z,101565.89
2023-02-27T06:03:06.647Z,101577.48
2023-02-27T06:06:34.034Z,101582.09
2023-02-27T06:10:00.905Z,101579.17
2023-02-27T06:13:28.045Z,101584.12
2023-02-27T06:16:55.224Z,101582.02
2023-02-27T06:20:22.253Z,101587.13
2023-02-27T06:23:48.806Z,101594.80
2023-02-27T06:27:15.753Z,101598.39
2023-02-27T06:30:42.998Z,101597.88
2023-02-27T06:34:11.254Z,101592.92
2023-02-27T06:37:38.532Z,101595.83
2023-02-27T06:41:05.601Z,101597.39
2023-02-27T06:44:32.177Z,101598.97
2023-02-27T06:47:59.711Z,101606.70
2023-02-27T06:51:26.747Z,101613.42
2023-02-27T06:54:54.899Z,101613.88
2023-02-27T06:58:21.896Z,101617.58
2023-02-27T07:01:51.631Z,101620.27
2023-02-27T07:05:18.471Z,101622.09
2023-02-27T07:09:00.917Z,101624.92
2023-02-27T07:12:32.906Z,101629.30
2023-02-27T07:15:59.862Z,101630.20
2023-02-27T07:19:28.232Z,101637.02
2023-02-27T07:22:54.788Z,101646.61
2023-02-27T07:26:21.445Z,101653.98
2023-02-27T07:29:48.508Z,101658.13
2023-02-27T07:33:14.997Z,101657.11
2023-02-27T07:36:42.305Z,101657.46
2023-02-27T07:40:12.123Z,101661.41
2023-02-27T07:43:39.003Z,101658.54
2023-02-27T07:47:06.997Z,101661.11
2023-02-27T07:50:34.053Z,101664.20
2023-02-27T07:54:02.507Z,101671.56
2023-02-27T07:57:30.312Z,101674.68
2023-02-27T08:00:58.528Z,101673.33
2023-02-27T08:04:25.544Z,101675.75
2023-02-27T08:07:53.218Z,101677.00
2023-02-27T08:11:20.121Z,101678.21
2023-02-27T08:14:47.168Z,101674.51
2023-02-27T08:18:14.327Z,101679.38
2023-02-27T08:21:41.017Z,101683.05
2023-02-27T08:25:11.134Z,101685.70
2023-02-27T08:28:38.005Z,101687.14
2023-02-27T08:32:05.950Z,101699.54
2023-02-27T08:35:32.951Z,101704.38
2023-02-27T08:38:59.754Z,101707.84
2023-02-27T08:42:27.040Z,101704.11
2023-02-27T08:45:54.266Z,101705.84
2023-02-27T08:49:23.162Z,101706.21
2023-02-27T08:52:50.356Z,101711.66
2023-02-27T08:56:17.144Z,101707.85
2023-02-27T08:59:43.765Z,101711.14
2023-02-27T09:03:11.607Z,101714.59
2023-02-27T09:06:39.335Z,101718.06
2023-02-27T09:10:07.539Z,101716.73
2023-02-27T09:13:34.831Z,101716.93
2023-02-27T09:17:01.617Z,101721.93
2023-02-27T09:20:28.762Z,101726.42
2023-02-27T09:24:02.634Z,101728.98
2023-02-27T09:27:34.001Z,101728.13
2023-02-27T09:31:03.506Z,101727.98
2023-02-27T09:34:31.079Z,101729.02
2023-02-27T09:38:00.737Z,101729.58
2023-02-27T09:41:43.660Z,101732.34
2023-02-27T09:45:19.828Z,101735.61
2023-02-27T09:48:52.822Z,101741.28
2023-02-27T09:52:20.127Z,101742.33
2023-02-27T09:55:48.514Z,101742.52
2023-02-27T09:59:27.151Z,101750.61
2023-02-27T10:03:02.440Z,101752.67
2023-02-27T10:06:35.685Z,101747.89
2023-02-27T10:10:20.712Z,101749.11
2023-02-27T10:14:00.757Z,101755.30
2023-02-27T10:17:30.651Z,101756.67
2023-02-27T10:21:00.614Z,101756.48
2023-02-27T10:24:32.072Z,101756.84
2023-02-27T10:28:04.219Z,101762.17
2023-02-27T10:31:36.272Z,101762.33
2023-02-27T10:35:12.526Z,101765.60
2023-02-27T10:38:44.682Z,101768.19
2023-02-27T10:42:13.868Z,101766.63
2023-02-27T10:45:40.531Z,101768.69
2023-02-27T10:49:19.066Z,101765.92
2023-02-27T10:52:53.930Z,101768.48
2023-02-27T10:56:26.953Z,101767.45
2023-02-27T10:59:54.408Z,101766.59
2023-02-27T11:03:26.684Z,101762.45
2023-02-27T11:06:56.327Z,101764.86
2023-02-27T11:10:25.557Z,101768.29
2023-02-27T11:13:52.267Z,101769.31
2023-02-27T11:17:28.889Z,101775.11
2023-02-27T11:20:56.919Z,101767.81
2023-02-27T11:24:23.616Z,101770.41
2023-02-27T11:27:52.381Z,101776.30
2023-02-27T11:31:23.053Z,101775.64
2023-02-27T11:34:53.638Z,101776.86
2023-02-27T11:38:24.983Z,101776.54
2023-02-27T11:41:53.053Z,101771.23
2023-02-27T11:46:04.905Z,101769.34
2023-02-27T11:49:35.678Z,101768.81
2023-02-27T11:53:12.623Z,101763.65
2023-02-27T11:56:43.586Z,101766.92
2023-02-27T12:00:21.891Z,101767.61
2023-02-27T12:03:52.724Z,101766.40
2023-02-27T12:07:24.592Z,101767.44
2023-02-27T12:11:12.343Z,101768.13
2023-02-27T12:14:48.909Z,101768.98
2023-02-27T12:18:23.312Z,101763.33
2023-02-27T12:21:55.384Z,101767.98
2023-02-27T12:25:33.600Z,101762.82
2023-02-27T12:29:05.327Z,101775.55
2023-02-27T12:32:43.142Z,101775.56
2023-02-27T12:36:14.266Z,101774.00
2023-02-27T12:39:43.594Z,101778.30
2023-02-27T12:43:24.578Z,101779.85
2023-02-27T12:47:02.166Z,101776.94
2023-02-27T12:50:36.772Z,101782.61
2023-02-27T12:54:24.966Z,101787.24
2023-02-27T12:58:09.517Z,101786.20
2023-02-27T13:01:47.187Z,101790.67
2023-02-27T13:05:28.428Z,101788.92
2023-02-27T13:09:09.084Z,101782.58
2023-02-27T13:12:43.120Z,101781.03
2023-02-27T13:16:15.464Z,101781.87
2023-02-27T13:19:48.752Z,101789.02
2023-02-27T13:23:20.625Z,101783.96
2023-02-27T13:26:51.968Z,101785.59
2023-02-27T13:30:28.318Z,101788.46
2023-02-27T13:34:04.637Z,101790.83
2023-02-27T13:37:54.046Z,101793.77
2023-02-27T13:41:40.904Z,101794.66
2023-02-27T13:45:29.824Z,101794.73
2023-02-27T13:48:57.437Z,101794.19
2023-02-27T13:52:33.066Z,101793.25
2023-02-27T13:56:23.252Z,101791.27
2023-02-27T13:59:58.403Z,101787.75
2023-02-27T14:03:27.992Z,101783.84
2023-02-27T14:07:01.325Z,101777.81
2023-02-27T14:10:31.578Z,101781.02
2023-02-27T14:14:09.189Z,101788.21
2023-02-27T14:17:46.644Z,101795.27
2023-02-27T14:21:13.692Z,101801.72
2023-02-27T14:24:52.793Z,101808.20
2023-02-27T14:28:28.493Z,101817.01
2023-02-27T14:31:57.607Z,101817.65
2023-02-27T14:35:25.695Z,101816.88
2023-02-27T14:38:55.785Z,101815.58
2023-02-27T14:42:46.181Z,101817.53
2023-02-27T14:46:24.272Z,101818.58
2023-02-27T14:49:52.983Z,101819.71
2023-02-27T14:53:28.764Z,101819.33
2023-02-27T14:57:00.983Z,101828.66
2023-02-27T15:00:41.189Z,101829.33
2023-02-27T15:04:17.169Z,101829.88
2023-02-27T15:07:49.465Z,101831.66
2023-02-27T15:11:21.302Z,101833.05
2023-02-27T15:14:53.933Z,101836.49
2023-02-27T15:18:24.516Z,101837.69
2023-02-27T15:21:54.168Z,101830.16
2023-02-27T15:25:47.613Z,101835.17
2023-02-27T15:29:25.170Z,101842.27
2023-02-27T15:32:55.638Z,101842.82
2023-02-27T15:36:28.181Z,101845.95
2023-02-27T15:39:56.693Z,101853.88
2023-02-27T15:43:27.760Z,101860.41
2023-02-27T15:46:56.036Z,101859.91
2023-02-27T15:50:33.869Z,101867.83
2023-02-27T15:54:02.114Z,101869.70
2023-02-27T15:57:30.817Z,101871.25
2023-02-27T16:01:02.727Z,101872.10
2023-02-27T16:04:31.441Z,101879.48
2023-02-27T16:07:58.079Z,101886.33
2023-02-27T16:11:27.149Z,101888.54
2023-02-27T16:14:55.024Z,101893.83
2023-02-27T16:18:33.128Z,101897.23
2023-02-27T16:22:20.070Z,101899.09
2023-02-27T16:26:04.642Z,101903.01
2023-02-27T16:29:37.178Z,101910.69
2023-02-27T16:33:06.320Z,101911.70
2023-02-27T16:36:35.042Z,101912.02
2023-02-27T16:40:01.856Z,101911.98
2023-02-27T16:43:29.580Z,101911.10
2023-02-27T16:46:59.446Z,101918.95
2023-02-27T16:50:33.250Z,101916.17
2023-02-27T16:54:01.121Z,101921.60
2023-02-27T16:57:28.458Z,101928.77
2023-02-27T17:00:56.061Z,101930.56
2023-02-27T17:04:25.826Z,101936.64
2023-02-27T17:07:54.910Z,101944.42
2023-02-27T17:11:21.544Z,101951.14
2023-02-27T17:14:48.184Z,101954.27
2023-02-27T17:18:15.207Z,101956.71
2023-02-27T17:21:42.581Z,101965.70
2023-02-27T17:25:11.370Z,101966.83
2023-02-27T17:28:40.875Z,101967.27
2023-02-27T17:32:08.156Z,101972.51
2023-02-27T17:35:35.117Z,101976.71
2023-02-27T17:39:03.873Z,101986.54
2023-02-27T17:42:30.861Z,101988.28
2023-02-27T17:45:58.018Z,101993.47
2023-02-27T17:49:24.787Z,101987.38
2023-02-27T17:52:51.574Z,101992.27
2023-02-27T17:56:18.686Z,101990.45
2023-02-27T17:59:45.930Z,101989.84
2023-02-27T18:03:13.822Z,101990.76
2023-02-27T18:06:41.185Z,101996.28
2023-02-27T18:10:11.292Z,102000.28
2023-02-27T18:13:39.061Z,101997.09
2023-02-27T18:17:12.337Z,101999.05
2023-02-27T18:20:40.838Z,102000.85
2023-02-27T18:24:09.773Z,102005.54
2023-02-27T18:27:36.656Z,102013.82
2023-02-27T18:31:08.968Z,102013.23
2023-02-27T18:34:36.300Z,102015.01
2023-02-27T18:38:04.188Z,102022.61
2023-02-27T18:41:33.386Z,102024.06
2023-02-27T18:45:00.347Z,102030.12
2023-02-27T18:48:35.014Z,102028.17
2023-02-27T18:52:03.579Z,102032.02
2023-02-27T18:55:32.559Z,102037.54
2023-02-27T18:59:05.479Z,102033.86
2023-02-27T19:02:31.908Z,102041.61
2023-02-27T19:06:23.679Z,102042.85
2023-02-27T19:09:51.958Z,102043.60
2023-02-27T19:13:19.309Z,102043.86
2023-02-27T19:16:47.322Z,102041.69
2023-02-27T19:20:17.429Z,102041.77
2023-02-27T19:23:44.816Z,102040.00
2023-02-27T19:27:11.906Z,102037.70
2023-02-27T19:30:41.457Z,102045.33
2023-02-27T19:34:08.603Z,102047.36
2023-02-27T19:37:35.830Z,102046.98
2023-02-27T19:41:04.976Z,102047.52
2023-02-27T19:44:32.263Z,102053.23
2023-02-27T19:47:59.255Z,102052.82
2023-02-27T19:51:27.110Z,102057.58
2023-02-27T19:54:56.800Z,102060.11
2023-02-27T19:58:23.733Z,102064.80
2023-02-27T20:01:50.412Z,102065.25
2023-02-27T20:05:19.559Z,102070.38
2023-02-27T20:08:46.640Z,102068.50
2023-02-27T20:12:14.464Z,102068.30
2023-02-27T20:15:42.610Z,102067.73
2023-02-27T20:19:11.075Z,102071.75
2023-02-27T20:22:38.676Z,102071.27
2023-02-27T20:26:24.690Z,102071.48
2023-02-27T20:29:55.303Z,102072.71
2023-02-27T20:33:22.627Z,102076.38
2023-02-27T20:36:54.568Z,102078.35
2023-02-27T20:40:23.116Z,102079.09
2023-02-27T20:43:50.391Z,102081.70
2023-02-27T20:47:17.647Z,102081.70
2023-02-27T20:50:44.611Z,102082.97
2023-02-27T20:54:16.811Z,102086.60
2023-02-27T20:57:43.581Z,102091.15
2023-02-27T21:01:13.553Z,102091.27
2023-02-27T21:04:43.787Z,102092.16
2023-02-27T21:08:10.832Z,102092.52
2023-02-27T21:11:38.176Z,102093.60
2023-02-27T21:15:05.980Z,102097.11
2023-02-27T21:18:33.796Z,102094.13
2023-02-27T21:22:01.816Z,102094.41
2023-02-27T21:25:29.597Z,102090.05
2023-02-27T21:29:05.362Z,102090.90
2023-02-27T21:32:34.238Z,102099.03
2023-02-27T21:36:01.043Z,102098.64
2023-02-27T21:39:34.509Z,102098.02
2023-02-27T21:43:01.540Z,102090.42
2023-02-27T21:46:29.429Z,102091.55
2023-02-27T21:49:59.599Z,102097.21
2023-02-27T21:53:27.843Z,102099.09
2023-02-27T21:56:54.882Z,102103.91
2023-02-27T22:00:28.897Z,102103.00
2023-02-27T22:03:59.414Z,102105.75
2023-02-27T22:07:29.368Z,102106.58
2023-02-27T22:11:01.356Z,102106.55
2023-02-27T22:14:28.789Z,102104.70
2023-02-27T22:17:57.078Z,102100.84
2023-02-27T22:21:27.864Z,102099.66
2023-02-27T22:24:55.758Z,102103.40
2023-02-27T22:28:23.271Z,102095.86
2023-02-27T22:31:50.055Z,102100.70
2023-02-27T22:35:19.290Z,102096.11
2023-02-27T22:38:46.591Z,102101.44
2023-02-27T22:42:16.751Z,102101.99
2023-02-27T22:45:50.353Z,102100.33
2023-02-27T22:49:20.453Z,102104.95
2023-02-27T22:52:48.006Z,102107.02
2023-02-27T22:56:17.324Z,102109.41
2023-02-27T22:59:47.453Z,102108.04
2023-02-27T23:03:14.711Z,102110.27
2023-02-27T23:06:44.161Z,102110.65
2023-02-27T23:10:13.651Z,102114.45
2023-02-27T23:13:41.490Z,102111.07
2023-02-27T23:17:09.420Z,102115.88
2023-02-27T23:20:43.133Z,102113.86
2023-02-27T23:24:17.627Z,102115.77
2023-02-27T23:27:45.487Z,102115.63
2023-02-27T23:31:13.831Z,102124.03
2023-02-27T23:34:49.556Z,102127.32
2023-02-27T23:38:17.207Z,102128.63
2023-02-27T23:41:43.787Z,102129.80
2023-02-27T23:45:30.256Z,102129.27
2023-02-27T23:48:57.814Z,102130.52
2023-02-27T23:52:24.549Z,102134.70
2023-02-27T23:55:52.147Z,102131.45
2023-02-27T23:59:19.019Z,102131.66
